Time;durP1;ratioP1;P1;durP2;ratioP2;P2;SDS_P1;SDS_P2;PMS_P1;PMS_P2;Temp;Humidity;BMP_temperature;BMP_pressure;BME280_temperature;BME280_humidity;BME280_pressure;Samples;Min_cycle;Max_cycle;Signal;HPM_P1;HPM_P2
2021/04/08 00:01:12;;;;;;;10.60;5.67;;;1.60;99.90;;;;;;5083428;28;20559;-72
2021/04/08 00:03:37;;;;;;;9.13;4.90;;;1.60;99.90;;;;;;5080520;28;20210;-72
2021/04/08 00:06:03;;;;;;;8.87;5.33;;;1.60;99.90;;;;;;5083188;28;21180;-74
2021/04/08 00:08:28;;;;;;;6.23;5.30;;;1.60;99.90;;;;;;5080180;28;20188;-72
2021/04/08 00:10:54;;;;;;;5.90;4.60;;;1.60;99.90;;;;;;5082906;28;20170;-72
2021/04/08 00:13:20;;;;;;;6.30;3.73;;;1.60;99.90;;;;;;5080668;28;20194;-72
2021/04/08 00:15:45;;;;;;;7.97;4.33;;;1.70;99.90;;;;;;5080364;28;20202;-73
2021/04/08 00:18:11;;;;;;;4.20;3.90;;;1.60;99.90;;;;;;5082025;28;20180;-72
2021/04/08 00:20:37;;;;;;;5.60;5.00;;;1.70;99.90;;;;;;5079568;28;20189;-73
2021/04/08 00:23:02;;;;;;;4.97;3.80;;;1.60;99.90;;;;;;5081974;28;20208;-72
2021/04/08 00:25:28;;;;;;;4.67;3.57;;;1.60;99.90;;;;;;5079411;28;20231;-71
2021/04/08 00:27:53;;;;;;;12.03;3.30;;;1.60;99.90;;;;;;5079858;28;20182;-72
2021/04/08 00:30:19;;;;;;;4.70;3.97;;;1.60;99.90;;;;;;5082122;28;20183;-73
2021/04/08 00:32:45;;;;;;;4.53;3.67;;;1.60;99.90;;;;;;5080664;28;20225;-72
2021/04/08 00:35:11;;;;;;;3.93;3.13;;;1.70;99.90;;;;;;5080920;28;20544;-74
2021/04/08 00:37:36;;;;;;;3.13;2.70;;;1.70;99.90;;;;;;5082241;28;20808;-72
2021/04/08 00:40:07;;;;;;;4.40;3.20;;;1.70;99.90;;;;;;5078257;28;20856;-73
2021/04/08 00:42:33;;;;;;;4.23;3.50;;;1.70;99.90;;;;;;5082712;28;20898;-72
2021/04/08 00:44:58;;;;;;;4.27;3.03;;;1.80;99.90;;;;;;5079265;28;20452;-72
2021/04/08 00:47:23;;;;;;;4.80;3.40;;;1.70;99.90;;;;;;5082311;28;20193;-72
2021/04/08 00:49:49;;;;;;;6.13;4.93;;;1.80;99.90;;;;;;5080303;28;20184;-73
2021/04/08 00:52:15;;;;;;;5.77;4.70;;;1.80;99.90;;;;;;5080766;28;20181;-72
2021/04/08 00:54:40;;;;;;;4.50;4.10;;;1.80;99.90;;;;;;5081724;28;20208;-72
2021/04/08 00:57:07;;;;;;;5.50;4.00;;;1.80;99.90;;;;;;5079546;28;20182;-74
2021/04/08 00:59:33;;;;;;;7.20;4.20;;;1.80;99.90;;;;;;5081415;28;20186;-71
2021/04/08 01:01:58;;;;;;;6.40;3.70;;;1.90;99.90;;;;;;5078803;28;20422;-72
2021/04/08 01:04:24;;;;;;;4.20;3.80;;;1.90;99.90;;;;;;5082118;28;20209;-71
2021/04/08 01:06:50;;;;;;;8.00;2.97;;;1.90;99.90;;;;;;5079942;28;20189;-71
2021/04/08 01:09:16;;;;;;;3.87;3.40;;;1.80;99.90;;;;;;5081143;28;20171;-71
2021/04/08 01:11:41;;;;;;;8.03;3.43;;;1.90;99.90;;;;;;5081157;28;20940;-72
2021/04/08 01:14:07;;;;;;;3.73;3.50;;;2.00;99.90;;;;;;5079382;28;20200;-72
2021/04/08 01:16:55;;;;;;;3.47;2.90;;;2.00;99.90;;;;;;5081304;28;20561;-72
2021/04/08 01:19:32;;;;;;;4.30;2.67;;;2.10;99.90;;;;;;5081835;28;20863;-72
2021/04/08 01:22:36;;;;;;;5.87;3.00;;;2.10;99.90;;;;;;5078659;28;20416;-73
2021/04/08 01:25:47;;;;;;;4.33;3.17;;;2.10;99.90;;;;;;5081605;28;20464;-71
2021/04/08 01:28:33;;;;;;;4.70;3.03;;;2.10;99.90;;;;;;5080233;28;20397;-72
2021/04/08 01:31:04;;;;;;;3.50;3.20;;;2.10;99.90;;;;;;5078809;28;20412;-72
2021/04/08 01:33:42;;;;;;;3.57;3.10;;;2.10;99.90;;;;;;5079454;28;20429;-72
2021/04/08 01:36:14;;;;;;;6.17;2.90;;;2.10;99.90;;;;;;5083775;28;20424;-72
2021/04/08 01:38:59;;;;;;;7.27;2.93;;;2.20;99.90;;;;;;5085358;28;20452;-72
2021/04/08 01:41:25;;;;;;;6.20;3.80;;;2.20;99.90;;;;;;5085996;28;20427;-72
2021/04/08 01:43:56;;;;;;;6.10;3.40;;;2.20;99.90;;;;;;5083210;28;20838;-72
2021/04/08 01:46:25;;;;;;;4.03;3.63;;;2.30;99.90;;;;;;5085533;28;20410;-72
2021/04/08 01:48:53;;;;;;;5.27;3.30;;;2.30;99.90;;;;;;5083534;28;20433;-72
2021/04/08 01:51:20;;;;;;;3.13;2.70;;;2.40;99.90;;;;;;5083659;28;20868;-72
2021/04/08 01:53:56;;;;;;;3.40;3.20;;;2.40;99.90;;;;;;5083873;28;20587;-72
2021/04/08 01:56:26;;;;;;;3.97;3.53;;;2.40;99.90;;;;;;5085388;28;21853;-72
2021/04/08 01:58:53;;;;;;;3.20;2.30;;;2.40;99.90;;;;;;5083221;28;20416;-72
2021/04/08 02:01:19;;;;;;;3.17;2.87;;;2.40;99.90;;;;;;5084829;28;20403;-72
2021/04/08 02:03:47;;;;;;;4.70;3.30;;;2.30;99.90;;;;;;5082525;28;20443;-72
2021/04/08 02:06:13;;;;;;;3.70;2.73;;;2.30;99.90;;;;;;5083679;28;20389;-72
2021/04/08 02:08:41;;;;;;;3.90;2.40;;;2.20;99.90;;;;;;5085099;28;20422;-72
2021/04/08 02:11:11;;;;;;;3.60;3.30;;;2.20;99.90;;;;;;5081822;28;20832;-72
2021/04/08 02:13:39;;;;;;;7.90;3.37;;;2.20;99.90;;;;;;5083675;28;20505;-72
2021/04/08 02:16:07;;;;;;;5.20;2.70;;;2.20;99.90;;;;;;5082343;28;20431;-71
2021/04/08 02:18:35;;;;;;;4.10;3.60;;;2.20;99.90;;;;;;5085779;28;20428;-72
2021/04/08 02:21:02;;;;;;;6.73;3.13;;;2.20;99.90;;;;;;5082030;28;20417;-73
2021/04/08 02:23:30;;;;;;;5.37;4.40;;;2.20;99.90;;;;;;5085108;28;20874;-72
2021/04/08 02:25:56;;;;;;;5.63;3.40;;;2.20;99.90;;;;;;5080843;28;20478;-71
2021/04/08 02:28:26;;;;;;;8.70;4.27;;;2.20;99.90;;;;;;5084727;28;20501;-72
2021/04/08 02:30:53;;;;;;;3.77;3.40;;;2.20;99.90;;;;;;5082954;28;20414;-72
2021/04/08 02:33:23;;;;;;;5.47;3.70;;;2.20;99.90;;;;;;5082570;28;20397;-72
2021/04/08 02:35:50;;;;;;;3.47;3.23;;;2.20;99.90;;;;;;5083038;28;20441;-71
2021/04/08 02:38:18;;;;;;;7.23;4.30;;;2.20;99.90;;;;;;5082227;28;20430;-73
2021/04/08 02:40:44;;;;;;;5.53;3.53;;;2.30;99.90;;;;;;5083798;28;20428;-71
2021/04/08 02:43:10;;;;;;;7.13;3.00;;;2.30;99.90;;;;;;5082196;28;20852;-72
2021/04/08 02:45:36;;;;;;;4.00;3.60;;;2.30;99.90;;;;;;5084459;28;20199;-72
2021/04/08 02:48:08;;;;;;;6.23;3.00;;;2.30;99.90;;;;;;5081479;28;20496;-72
2021/04/08 02:50:34;;;;;;;7.93;3.30;;;2.20;99.90;;;;;;5081926;28;20393;-72
2021/04/08 02:53:00;;;;;;;4.10;3.13;;;2.20;99.90;;;;;;5084571;28;20441;-72
2021/04/08 02:55:40;;;;;;;3.17;2.23;;;2.30;99.90;;;;;;5080641;28;20968;-72
2021/04/08 02:58:07;;;;;;;3.70;2.77;;;2.20;99.90;;;;;;5081580;28;20729;-72
2021/04/08 03:00:36;;;;;;;3.07;2.77;;;2.20;99.90;;;;;;5085195;28;20399;-72
2021/04/08 03:03:07;;;;;;;3.30;3.10;;;2.20;99.90;;;;;;5080726;28;20884;-71
2021/04/08 03:05:37;;;;;;;2.90;2.67;;;2.20;99.90;;;;;;5081410;28;20536;-72
2021/04/08 03:08:13;;;;;;;4.63;3.20;;;2.20;99.90;;;;;;5084651;28;20854;-73
2021/04/08 03:10:41;;;;;;;4.83;3.00;;;2.20;99.90;;;;;;5082877;28;20394;-71
2021/04/08 03:13:11;;;;;;;2.73;2.47;;;2.20;99.90;;;;;;5084357;28;20399;-72
2021/04/08 03:15:38;;;;;;;5.43;3.03;;;2.20;99.90;;;;;;5082031;28;20422;-73
2021/04/08 03:18:08;;;;;;;4.03;3.17;;;2.20;99.90;;;;;;5084365;28;20422;-73
2021/04/08 03:20:34;;;;;;;3.80;2.70;;;2.20;99.90;;;;;;5081266;28;20440;-73
2021/04/08 03:23:04;;;;;;;4.70;3.17;;;2.30;99.90;;;;;;5083835;28;20472;-72
2021/04/08 03:25:30;;;;;;;5.30;3.00;;;2.30;99.90;;;;;;5081109;28;20439;-72
2021/04/08 03:27:56;;;;;;;7.70;3.40;;;2.30;99.90;;;;;;5083652;28;20520;-72
2021/04/08 03:30:23;;;;;;;6.53;3.43;;;2.30;99.90;;;;;;5081857;28;20665;-71
2021/04/08 03:32:49;;;;;;;4.57;3.77;;;2.30;99.90;;;;;;5081163;28;20426;-72
2021/04/08 03:35:15;;;;;;;3.17;2.97;;;2.20;99.90;;;;;;5082626;28;20799;-72
2021/04/08 03:37:41;;;;;;;5.57;3.13;;;2.30;99.90;;;;;;5081539;28;21198;-72
2021/04/08 03:40:09;;;;;;;5.90;3.60;;;2.30;99.90;;;;;;5083658;28;20443;-72
2021/04/08 03:42:35;;;;;;;7.00;2.97;;;2.30;99.90;;;;;;5080457;28;20430;-72
2021/04/08 03:45:05;;;;;;;3.30;3.00;;;2.30;99.90;;;;;;5083748;28;20443;-72
2021/04/08 03:47:31;;;;;;;4.37;3.10;;;2.20;99.90;;;;;;5080425;28;20916;-72
2021/04/08 03:49:58;;;;;;;3.80;3.23;;;2.20;99.90;;;;;;5083558;28;20404;-71
2021/04/08 03:52:24;;;;;;;6.97;4.37;;;2.30;99.90;;;;;;5080772;28;20183;-72
2021/04/08 03:54:50;;;;;;;4.13;3.70;;;2.30;99.90;;;;;;5082488;28;20483;-72
2021/04/08 03:57:18;;;;;;;4.47;4.07;;;2.30;99.90;;;;;;5080958;28;20424;-71
2021/04/08 03:59:45;;;;;;;6.03;4.00;;;2.20;99.90;;;;;;5081744;28;20427;-72
2021/04/08 04:02:13;;;;;;;5.57;3.80;;;2.20;99.90;;;;;;5082250;28;20541;-74
2021/04/08 04:04:39;;;;;;;4.77;3.83;;;2.20;99.90;;;;;;5079550;28;20475;-74
2021/04/08 04:07:05;;;;;;;5.33;4.33;;;2.20;99.90;;;;;;5083129;28;20446;-72
2021/04/08 04:09:31;;;;;;;8.17;5.57;;;2.20;99.90;;;;;;5078892;28;20481;-72
2021/04/08 04:11:57;;;;;;;8.10;4.63;;;2.20;99.90;;;;;;5082851;28;20417;-75
2021/04/08 04:14:28;;;;;;;7.47;4.73;;;2.20;99.90;;;;;;5080711;28;20446;-72
2021/04/08 04:16:55;;;;;;;6.67;4.57;;;2.20;99.90;;;;;;5082462;28;20224;-72
2021/04/08 04:19:24;;;;;;;8.40;4.10;;;2.20;99.90;;;;;;5081290;28;20419;-72
2021/04/08 04:21:50;;;;;;;11.93;4.90;;;2.10;99.90;;;;;;5081791;28;20450;-74
2021/04/08 04:24:16;;;;;;;9.00;4.63;;;2.10;99.90;;;;;;5081153;28;20545;-72
2021/04/08 04:26:42;;;;;;;4.93;3.83;;;2.10;99.90;;;;;;5080699;28;20455;-73
2021/04/08 04:29:07;;;;;;;4.63;4.23;;;2.10;99.90;;;;;;5082656;28;20715;-72
2021/04/08 04:31:37;;;;;;;6.40;5.03;;;2.10;99.90;;;;;;5078575;28;20186;-73
2021/04/08 04:34:04;;;;;;;4.83;4.30;;;2.10;99.90;;;;;;5079385;28;20466;-73
2021/04/08 04:36:33;;;;;;;4.70;3.97;;;2.10;99.90;;;;;;5079883;28;20977;-72
2021/04/08 04:38:59;;;;;;;7.50;4.33;;;2.10;99.90;;;;;;5081279;28;20433;-73
2021/04/08 04:41:25;;;;;;;5.20;4.57;;;2.10;99.90;;;;;;5079953;28;20436;-73
2021/04/08 04:43:50;;;;;;;6.63;4.20;;;2.00;99.90;;;;;;5081308;28;21027;-72
2021/04/08 04:46:16;;;;;;;5.63;3.40;;;2.10;99.90;;;;;;5081125;28;20180;-72
2021/04/08 04:48:41;;;;;;;4.70;3.70;;;2.10;99.90;;;;;;5080505;28;20178;-71
2021/04/08 04:51:07;;;;;;;8.43;3.93;;;2.10;99.90;;;;;;5081786;28;20185;-71
2021/04/08 04:53:33;;;;;;;6.70;3.80;;;2.10;99.90;;;;;;5081161;28;20198;-71
2021/04/08 04:55:59;;;;;;;10.50;4.33;;;2.10;99.90;;;;;;5083655;28;20197;-72
2021/04/08 04:58:24;;;;;;;4.77;4.07;;;2.10;99.90;;;;;;5081781;28;20192;-70
2021/04/08 05:00:50;;;;;;;6.17;4.80;;;2.10;99.90;;;;;;5081352;28;20959;-71
2021/04/08 05:03:15;;;;;;;12.93;3.27;;;2.20;99.90;;;;;;5080825;28;20207;-70
2021/04/08 05:05:41;;;;;;;4.90;3.30;;;2.20;99.90;;;;;;5080575;28;20209;-70
2021/04/08 05:08:06;;;;;;;4.90;3.20;;;2.20;99.90;;;;;;5082049;28;20255;-72
2021/04/08 05:10:32;;;;;;;5.30;3.47;;;2.30;99.90;;;;;;5079721;28;20195;-70
2021/04/08 05:12:57;;;;;;;13.13;3.67;;;2.30;99.90;;;;;;5080878;28;20211;-71
2021/04/08 05:15:23;;;;;;;4.70;2.97;;;2.30;99.90;;;;;;5079896;28;20204;-71
2021/04/08 05:17:48;;;;;;;3.70;3.10;;;2.30;99.90;;;;;;5080913;28;20622;-71
2021/04/08 05:20:14;;;;;;;4.63;3.40;;;2.30;99.90;;;;;;5079823;28;20263;-69
2021/04/08 05:22:39;;;;;;;5.43;3.97;;;2.40;99.90;;;;;;5079042;28;20221;-71
2021/04/08 05:25:06;;;;;;;4.23;3.83;;;2.30;99.90;;;;;;5082068;28;20297;-69
2021/04/08 05:27:32;;;;;;;3.43;3.13;;;2.30;99.90;;;;;;5078665;28;20663;-70
2021/04/08 05:29:57;;;;;;;4.60;3.40;;;2.40;99.90;;;;;;5082107;28;20457;-71
2021/04/08 05:32:23;;;;;;;4.87;3.63;;;2.40;99.90;;;;;;5079135;28;20542;-70
2021/04/08 05:34:51;;;;;;;12.23;3.93;;;2.50;99.90;;;;;;5080818;28;20320;-70
2021/04/08 05:37:17;;;;;;;4.20;3.80;;;2.50;99.90;;;;;;5080058;28;20179;-69
2021/04/08 05:39:42;;;;;;;8.40;3.90;;;2.50;99.90;;;;;;5080403;28;20427;-71
2021/04/08 05:42:09;;;;;;;7.37;3.40;;;2.50;99.90;;;;;;5081155;28;20177;-69
2021/04/08 05:44:34;;;;;;;6.67;4.50;;;2.50;99.90;;;;;;5077418;28;20294;-70
2021/04/08 05:47:00;;;;;;;8.00;4.97;;;2.60;99.90;;;;;;5080423;28;21254;-71
2021/04/08 05:49:26;;;;;;;7.70;4.83;;;2.60;99.90;;;;;;5084911;28;20647;-70
2021/04/08 05:51:51;;;;;;;5.40;4.97;;;2.70;99.90;;;;;;5085667;28;20184;-70
2021/04/08 05:54:17;;;;;;;5.83;4.40;;;2.80;99.90;;;;;;5090453;28;20541;-69
2021/04/08 05:56:42;;;;;;;6.87;4.50;;;2.80;99.90;;;;;;5084780;28;20255;-70
2021/04/08 05:59:08;;;;;;;7.73;4.37;;;2.90;99.90;;;;;;5081349;28;20184;-70
2021/04/08 06:01:33;;;;;;;5.03;3.47;;;3.00;99.90;;;;;;5078537;28;20177;-69
2021/04/08 06:03:59;;;;;;;4.83;3.90;;;3.20;99.90;;;;;;5078071;28;20209;-69
2021/04/08 06:06:24;;;;;;;6.70;4.17;;;3.30;99.90;;;;;;5082774;28;20208;-70
2021/04/08 06:08:50;;;;;;;6.60;4.80;;;3.50;99.90;;;;;;5080472;28;20234;-70
2021/04/08 06:11:16;;;;;;;10.60;4.37;;;3.50;99.90;;;;;;5076476;28;20625;-70
2021/04/08 06:13:41;;;;;;;8.90;3.40;;;3.60;99.90;;;;;;5078820;28;20212;-69
2021/04/08 06:16:07;;;;;;;6.33;4.57;;;3.70;99.90;;;;;;5077158;28;20189;-70
2021/04/08 06:18:32;;;;;;;3.13;2.93;;;4.00;99.90;;;;;;5081999;28;20216;-70
2021/04/08 06:20:58;;;;;;;6.43;3.50;;;4.10;99.90;;;;;;5081779;28;20199;-71
2021/04/08 06:23:24;;;;;;;6.90;3.27;;;4.20;99.90;;;;;;5082080;28;20217;-70
2021/04/08 06:25:49;;;;;;;4.83;3.60;;;4.20;99.90;;;;;;5083976;28;20259;-70
2021/04/08 06:28:15;;;;;;;3.90;3.50;;;4.50;99.90;;;;;;5083837;28;20178;-70
2021/04/08 06:30:44;;;;;;;5.03;3.30;;;4.50;99.90;;;;;;5082822;28;20189;-70
2021/04/08 06:33:10;;;;;;;5.00;3.40;;;4.60;99.90;;;;;;5084126;28;20201;-70
2021/04/08 06:35:36;;;;;;;5.10;4.10;;;4.70;99.90;;;;;;5081737;28;20956;-70
2021/04/08 06:38:01;;;;;;;6.70;5.27;;;4.80;99.90;;;;;;5085033;28;20205;-70
2021/04/08 06:40:27;;;;;;;6.70;4.33;;;4.90;99.90;;;;;;5081985;28;20464;-70
2021/04/08 06:42:54;;;;;;;3.80;3.50;;;5.20;99.90;;;;;;5083723;28;20584;-71
2021/04/08 06:45:23;;;;;;;7.60;3.50;;;5.40;99.90;;;;;;5082903;28;20238;-70
2021/04/08 06:47:51;;;;;;;5.50;3.80;;;5.70;99.90;;;;;;5085158;28;20420;-71
2021/04/08 06:50:21;;;;;;;4.23;3.93;;;5.60;99.90;;;;;;5085125;28;20428;-70
2021/04/08 06:52:48;;;;;;;6.40;4.30;;;5.60;99.90;;;;;;5082672;28;20413;-69
2021/04/08 06:55:15;;;;;;;7.63;4.27;;;5.60;99.90;;;;;;5083045;28;20452;-69
2021/04/08 06:57:42;;;;;;;3.97;3.67;;;5.60;99.90;;;;;;5083669;28;20439;-70
2021/04/08 07:00:09;;;;;;;8.20;5.10;;;5.80;99.90;;;;;;5082004;28;20996;-69
2021/04/08 07:02:36;;;;;;;4.27;3.90;;;6.00;99.90;;;;;;5084583;28;20526;-69
2021/04/08 07:05:06;;;;;;;7.07;4.23;;;6.00;99.90;;;;;;5081953;28;20775;-70
2021/04/08 07:07:31;;;;;;;7.67;4.70;;;5.90;99.90;;;;;;5081017;28;20407;-71
2021/04/08 07:09:57;;;;;;;6.13;4.50;;;6.20;99.90;;;;;;5084380;28;20434;-70
2021/04/08 07:12:23;;;;;;;6.30;4.77;;;6.40;99.90;;;;;;5081574;28;20213;-70
2021/04/08 07:14:52;;;;;;;5.80;5.17;;;6.80;99.90;;;;;;5081725;28;20194;-70
2021/04/08 07:17:18;;;;;;;8.87;5.67;;;7.20;99.90;;;;;;5082468;28;20176;-71
2021/04/08 07:19:44;;;;;;;11.43;5.67;;;7.40;99.90;;;;;;5084382;28;20462;-71
2021/04/08 07:22:11;;;;;;;5.50;4.90;;;7.60;99.90;;;;;;5083246;28;20212;-71
2021/04/08 07:24:50;;;;;;;6.60;4.67;;;8.00;99.90;;;;;;5081000;28;20497;-71
2021/04/08 07:27:21;;;;;;;6.70;4.00;;;8.20;99.90;;;;;;5082560;28;20511;-72
2021/04/08 07:29:57;;;;;;;7.93;4.80;;;8.20;99.90;;;;;;5082448;28;20921;-71
2021/04/08 07:32:27;;;;;;;10.00;4.27;;;7.90;99.90;;;;;;5080002;28;20861;-72
2021/04/08 07:35:17;;;;;;;5.87;4.50;;;7.90;99.90;;;;;;5083254;28;20946;-71
2021/04/08 07:37:53;;;;;;;5.83;5.20;;;8.10;99.90;;;;;;5070773;28;20845;-70
2021/04/08 07:40:20;;;;;;;9.30;4.87;;;8.50;99.90;;;;;;5082131;28;20788;-69
2021/04/08 07:42:47;;;;;;;6.80;4.40;;;8.70;99.90;;;;;;5081667;28;20425;-70
2021/04/08 07:45:35;;;;;;;5.97;4.30;;;8.60;99.90;;;;;;5082680;28;20538;-71
2021/04/08 07:48:05;;;;;;;13.03;5.50;;;8.50;99.90;;;;;;5075717;28;20930;-70
2021/04/08 07:50:33;;;;;;;7.23;4.37;;;8.00;99.90;;;;;;5084243;28;20411;-69
2021/04/08 07:52:59;;;;;;;9.00;5.00;;;7.80;99.90;;;;;;5076450;28;20451;-70
2021/04/08 07:55:30;;;;;;;9.33;5.63;;;7.60;99.90;;;;;;5083236;28;20445;-70
2021/04/08 07:58:05;;;;;;;5.47;4.73;;;8.00;99.90;;;;;;5082976;28;20504;-71
2021/04/08 08:00:36;;;;;;;7.10;6.30;;;8.20;99.90;;;;;;5080221;28;20451;-70
2021/04/08 08:03:07;;;;;;;7.63;6.20;;;7.90;99.90;;;;;;5079689;28;20802;-70
2021/04/08 08:05:36;;;;;;;13.60;6.00;;;8.00;99.90;;;;;;5080085;28;20436;-71
2021/04/08 08:08:12;;;;;;;8.30;6.63;;;7.90;99.90;;;;;;5079799;28;20411;-70
2021/04/08 08:10:40;;;;;;;9.33;6.37;;;7.90;99.90;;;;;;5080413;28;20924;-70
2021/04/08 08:13:26;;;;;;;8.43;5.80;;;8.10;99.90;;;;;;5082745;28;20940;-71
2021/04/08 08:15:55;;;;;;;6.20;5.60;;;8.30;99.90;;;;;;5081020;28;20419;-70
2021/04/08 08:18:32;;;;;;;10.10;6.20;;;8.70;99.90;;;;;;5081732;28;20936;-69
2021/04/08 08:21:36;;;;;;;10.63;6.00;;;9.10;99.90;;;;;;5078760;28;20456;-70
2021/04/08 08:24:10;;;;;;;8.73;6.47;;;8.40;99.90;;;;;;5072225;28;21011;-70
2021/04/08 08:26:37;;;;;;;8.57;6.20;;;8.00;99.90;;;;;;5079873;28;20418;-71
2021/04/08 08:29:30;;;;;;;7.20;6.03;;;7.80;99.90;;;;;;5082949;28;20415;-71
2021/04/08 08:32:03;;;;;;;10.40;5.70;;;7.40;99.90;;;;;;5082340;28;20412;-69
2021/04/08 08:34:30;;;;;;;18.00;7.80;;;7.70;99.90;;;;;;5079467;28;20428;-70
2021/04/08 08:37:01;;;;;;;15.00;5.80;;;8.00;99.90;;;;;;5082120;28;20929;-70
2021/04/08 08:39:49;;;;;;;79.70;11.97;;;8.30;99.90;;;;;;5080834;28;21042;-71
2021/04/08 08:42:18;;;;;;;91.60;12.70;;;8.50;99.90;;;;;;5081308;28;20442;-72
2021/04/08 08:44:44;;;;;;;44.83;8.87;;;8.70;99.90;;;;;;5079681;28;20466;-68
2021/04/08 08:47:32;;;;;;;30.40;7.30;;;9.10;99.90;;;;;;5075083;28;20425;-70
2021/04/08 08:50:08;;;;;;;67.20;9.00;;;8.90;99.90;;;;;;5081234;28;20524;-70
2021/04/08 08:52:40;;;;;;;27.80;6.83;;;9.20;99.90;;;;;;5079112;28;20420;-70
2021/04/08 08:55:09;;;;;;;4.77;4.10;;;8.90;99.90;;;;;;5079469;28;20466;-71
2021/04/08 08:57:37;;;;;;;9.20;4.20;;;8.60;99.90;;;;;;5084917;28;20486;-71
2021/04/08 09:00:03;;;;;;;27.93;5.87;;;9.20;99.90;;;;;;5079747;28;20453;-71
2021/04/08 09:02:29;;;;;;;34.23;5.80;;;9.90;99.90;;;;;;5075191;28;20791;-70
2021/04/08 09:04:55;;;;;;;10.10;4.40;;;10.60;99.90;;;;;;5083339;28;20469;-72
2021/04/08 09:07:21;;;;;;;6.70;4.33;;;11.00;99.90;;;;;;5078455;28;20183;-71
2021/04/08 09:09:54;;;;;;;18.70;4.00;;;10.80;99.90;;;;;;5080701;28;20182;-71
2021/04/08 09:12:21;;;;;;;6.77;4.90;;;10.40;99.90;;;;;;5080723;28;20935;-71
2021/04/08 09:14:48;;;;;;;16.53;5.27;;;9.80;99.90;;;;;;5080642;28;20517;-72
2021/04/08 09:17:37;;;;;;;5.20;4.03;;;9.20;99.90;;;;;;5078877;28;20431;-70
2021/04/08 09:20:04;;;;;;;5.60;4.20;;;8.30;99.90;;;;;;5079855;28;20418;-72
2021/04/08 09:22:30;;;;;;;8.27;5.23;;;8.20;99.90;;;;;;5082775;28;20789;-72
2021/04/08 09:24:56;;;;;;;11.83;4.23;;;8.00;99.90;;;;;;5077668;28;20475;-71
2021/04/08 09:27:23;;;;;;;10.07;4.57;;;7.80;99.90;;;;;;5079841;28;20258;-70
2021/04/08 09:29:53;;;;;;;11.70;5.00;;;7.30;99.90;;;;;;5080567;28;20480;-71
2021/04/08 09:32:34;;;;;;;4.37;3.97;;;7.20;99.90;;;;;;5077942;28;20425;-71
2021/04/08 09:35:09;;;;;;;5.57;4.47;;;7.10;99.90;;;;;;5078596;28;20444;-71
2021/04/08 09:37:44;;;;;;;7.03;4.73;;;7.00;99.90;;;;;;5081304;28;20500;-72
2021/04/08 09:40:22;;;;;;;5.47;4.97;;;7.00;99.90;;;;;;5078643;28;20431;-71
2021/04/08 09:42:52;;;;;;;4.97;4.20;;;8.10;99.90;;;;;;5081181;28;20419;-72
2021/04/08 09:45:19;;;;;;;5.67;4.40;;;8.80;99.90;;;;;;5080165;28;20508;-71
2021/04/08 09:47:44;;;;;;;8.70;4.23;;;8.70;99.90;;;;;;5082116;28;20800;-72
2021/04/08 09:50:21;;;;;;;8.37;4.13;;;8.30;99.90;;;;;;5082238;28;20425;-71
2021/04/08 09:52:55;;;;;;;5.50;5.00;;;7.90;99.90;;;;;;5079827;28;20181;-70
2021/04/08 09:55:32;;;;;;;6.70;4.60;;;7.60;99.90;;;;;;5083062;28;20451;-72
2021/04/08 09:58:02;;;;;;;7.50;4.90;;;7.50;99.90;;;;;;5082599;28;20413;-71
2021/04/08 10:00:28;;;;;;;7.70;4.50;;;7.50;99.90;;;;;;5085595;28;20420;-71
2021/04/08 10:03:07;;;;;;;4.23;3.70;;;7.50;99.90;;;;;;5078057;28;20428;-70
2021/04/08 10:05:40;;;;;;;4.73;4.30;;;7.40;99.90;;;;;;5082382;28;20542;-72
2021/04/08 10:08:08;;;;;;;9.83;5.63;;;7.20;99.90;;;;;;5082259;28;20462;-72
2021/04/08 10:10:37;;;;;;;5.27;4.73;;;7.30;99.90;;;;;;5086523;28;20837;-71
2021/04/08 10:13:20;;;;;;;4.40;3.33;;;7.30;99.90;;;;;;5081954;28;20429;-70
2021/04/08 10:15:47;;;;;;;6.13;4.03;;;7.20;99.90;;;;;;5083574;28;20444;-72
2021/04/08 10:18:22;;;;;;;5.07;4.53;;;7.10;99.90;;;;;;5086580;28;20930;-71
2021/04/08 10:20:50;;;;;;;5.40;4.10;;;7.30;99.90;;;;;;5087745;28;20396;-71
2021/04/08 10:23:28;;;;;;;9.23;4.60;;;7.40;99.90;;;;;;5083064;28;20490;-71
2021/04/08 10:26:04;;;;;;;7.70;4.70;;;7.60;99.90;;;;;;5082863;28;20924;-71
2021/04/08 10:28:41;;;;;;;5.37;4.03;;;7.60;99.90;;;;;;5085132;28;20438;-71
2021/04/08 10:31:37;;;;;;;7.13;5.10;;;7.80;99.90;;;;;;5078635;28;20422;-72
2021/04/08 10:34:04;;;;;;;8.63;5.33;;;8.00;99.90;;;;;;5064701;28;20450;-72
2021/04/08 10:36:41;;;;;;;10.70;5.53;;;8.10;99.90;;;;;;5081875;28;20471;-72
2021/04/08 10:39:21;;;;;;;7.07;4.87;;;7.80;99.90;;;;;;5082163;28;20428;-71
2021/04/08 10:42:10;;;;;;;8.80;6.47;;;7.70;99.90;;;;;;5083406;28;20423;-71
2021/04/08 10:44:47;;;;;;;5.27;4.77;;;7.70;99.90;;;;;;5081786;28;20463;-72
2021/04/08 10:47:15;;;;;;;7.20;6.50;;;7.70;99.90;;;;;;5083955;28;20444;-72
2021/04/08 10:49:56;;;;;;;13.70;5.80;;;7.60;99.90;;;;;;5082409;28;20416;-71
2021/04/08 10:52:23;;;;;;;9.13;6.17;;;7.60;99.90;;;;;;5082366;28;20434;-71
2021/04/08 10:54:51;;;;;;;8.20;5.07;;;7.90;99.90;;;;;;5083312;28;20436;-71
2021/04/08 10:57:17;;;;;;;6.40;5.53;;;8.10;99.90;;;;;;5083228;28;20428;-71
2021/04/08 10:59:46;;;;;;;7.50;5.50;;;8.30;99.90;;;;;;5082572;28;20925;-72
2021/04/08 11:02:32;;;;;;;7.53;6.03;;;8.50;99.90;;;;;;5083297;28;20426;-71
2021/04/08 11:05:02;;;;;;;11.33;6.33;;;8.30;99.90;;;;;;5084011;28;20481;-70
2021/04/08 11:07:34;;;;;;;8.30;6.27;;;8.40;99.90;;;;;;5079720;28;20430;-71
2021/04/08 11:10:14;;;;;;;12.27;6.53;;;8.40;99.90;;;;;;5084753;28;20423;-72
2021/04/08 11:12:40;;;;;;;9.87;6.53;;;8.50;99.90;;;;;;5081392;28;20419;-73
2021/04/08 11:15:08;;;;;;;11.30;6.53;;;8.50;99.90;;;;;;5084399;28;20787;-71
2021/04/08 11:17:38;;;;;;;6.40;5.57;;;8.60;99.90;;;;;;5081218;28;20556;-72
2021/04/08 11:20:05;;;;;;;7.93;6.40;;;8.60;99.90;;;;;;5081154;28;20780;-70
2021/04/08 11:22:33;;;;;;;6.50;5.90;;;8.70;99.90;;;;;;5080668;28;20949;-72
2021/04/08 11:24:59;;;;;;;12.47;5.97;;;8.80;99.90;;;;;;5083990;28;21013;-71
2021/04/08 11:27:32;;;;;;;6.63;5.13;;;8.90;99.90;;;;;;5081542;28;21087;-72
2021/04/08 11:29:58;;;;;;;6.93;5.57;;;9.00;99.90;;;;;;5083965;28;20935;-73
2021/04/08 11:32:24;;;;;;;6.70;5.60;;;9.20;99.90;;;;;;5081537;28;20423;-71
2021/04/08 11:34:55;;;;;;;6.10;5.20;;;9.30;99.90;;;;;;5082545;28;20194;-71
2021/04/08 11:37:32;;;;;;;9.33;4.67;;;9.30;99.90;;;;;;5081882;28;20992;-71
2021/04/08 11:40:00;;;;;;;4.40;4.00;;;9.20;99.90;;;;;;5082491;28;20435;-70
2021/04/08 11:42:33;;;;;;;5.27;3.93;;;8.90;99.90;;;;;;5080858;28;20421;-71
2021/04/08 11:45:18;;;;;;;5.07;3.87;;;8.90;99.90;;;;;;5082134;28;21062;-71
2021/04/08 11:47:58;;;;;;;4.70;4.30;;;9.00;99.90;;;;;;5081674;28;20915;-72
2021/04/08 11:50:36;;;;;;;8.33;4.53;;;8.80;99.90;;;;;;5081441;28;20428;-71
2021/04/08 11:53:30;;;;;;;4.63;4.00;;;8.80;99.90;;;;;;5079982;28;20409;-72
2021/04/08 11:55:56;;;;;;;5.17;2.97;;;8.90;99.90;;;;;;5074769;28;20429;-72
2021/04/08 11:58:32;;;;;;;7.03;5.77;;;8.90;99.90;;;;;;5081235;28;20812;-71
2021/04/08 12:01:08;;;;;;;5.97;4.97;;;8.90;99.90;;;;;;5083334;28;20662;-71
2021/04/08 12:03:42;;;;;;;10.40;6.27;;;8.40;99.90;;;;;;5079709;28;20554;-71
2021/04/08 12:06:14;;;;;;;8.70;4.70;;;8.50;99.90;;;;;;5080727;28;20471;-70
2021/04/08 12:08:51;;;;;;;6.47;4.00;;;8.60;99.90;;;;;;5082794;28;20420;-71
2021/04/08 12:11:18;;;;;;;13.70;5.33;;;9.00;99.90;;;;;;5081957;28;20507;-71
2021/04/08 12:13:59;;;;;;;8.00;6.20;;;8.80;99.90;;;;;;5081668;28;20417;-71
2021/04/08 12:16:26;;;;;;;7.67;5.60;;;8.70;99.90;;;;;;5082819;28;20500;-70
2021/04/08 12:18:52;;;;;;;7.40;5.03;;;8.90;99.90;;;;;;5080311;28;20439;-70
2021/04/08 12:21:19;;;;;;;6.67;3.60;;;8.90;99.90;;;;;;5086541;28;20831;-69
2021/04/08 12:23:45;;;;;;;6.13;4.77;;;8.80;99.90;;;;;;5091336;28;20468;-70
2021/04/08 12:26:11;;;;;;;7.03;4.60;;;9.00;99.90;;;;;;5095066;28;20503;-70
2021/04/08 12:28:39;;;;;;;5.13;3.50;;;9.20;99.90;;;;;;5097823;28;20865;-71
2021/04/08 12:31:04;;;;;;;5.40;3.43;;;9.60;99.90;;;;;;5097290;28;20541;-70
2021/04/08 12:33:33;;;;;;;7.47;3.90;;;9.70;99.90;;;;;;5093864;28;20421;-69
2021/04/08 12:36:01;;;;;;;11.83;4.13;;;9.50;99.90;;;;;;5091627;28;20188;-71
2021/04/08 12:38:27;;;;;;;7.50;4.97;;;9.20;99.90;;;;;;5079827;28;20518;-71
2021/04/08 12:40:53;;;;;;;6.70;4.47;;;8.90;99.90;;;;;;5081857;28;20423;-72
2021/04/08 12:43:19;;;;;;;4.20;3.53;;;8.90;99.90;;;;;;5080451;28;20419;-70
2021/04/08 12:45:45;;;;;;;8.03;4.00;;;8.80;99.90;;;;;;5080866;28;20529;-70
2021/04/08 12:48:11;;;;;;;4.83;3.40;;;8.90;99.90;;;;;;5080514;28;20441;-72
2021/04/08 12:50:42;;;;;;;4.10;3.73;;;9.00;99.90;;;;;;5078443;28;20178;-71
2021/04/08 12:53:08;;;;;;;4.77;3.60;;;8.60;99.90;;;;;;5082015;28;20189;-71
2021/04/08 12:55:34;;;;;;;5.00;3.30;;;8.70;99.90;;;;;;5079445;28;20440;-70
2021/04/08 12:58:00;;;;;;;8.53;3.27;;;8.80;99.90;;;;;;5082270;28;20482;-71
2021/04/08 13:00:27;;;;;;;5.80;3.90;;;8.80;99.90;;;;;;5080056;28;20915;-72
2021/04/08 13:02:53;;;;;;;5.47;2.70;;;9.10;99.90;;;;;;5080920;28;20182;-71
2021/04/08 13:05:19;;;;;;;3.70;2.80;;;9.20;99.90;;;;;;5080742;28;20601;-72
2021/04/08 13:07:45;;;;;;;4.80;3.50;;;9.30;99.90;;;;;;5080212;28;20430;-72